Time;durP1;ratioP1;P1;durP2;ratioP2;P2;SDS_P1;SDS_P2;PMS_P1;PMS_P2;Temp;Humidity;BMP_temperature;BMP_pressure;BME280_temperature;BME280_humidity;BME280_pressure;Samples;Min_cycle;Max_cycle;Signal;HPM_P1;HPM_P2
2021/06/13 00:00:38;;;;;;;11.82;9.93;;;16.30;99.90;;;;;;5067323;28;20048;-68
2021/06/13 00:03:08;;;;;;;13.65;9.63;;;16.30;99.90;;;;;;5064712;28;20048;-68
2021/06/13 00:05:36;;;;;;;13.45;9.93;;;16.30;99.90;;;;;;5066605;28;20040;-68
2021/06/13 00:08:04;;;;;;;11.98;9.45;;;16.30;99.90;;;;;;5054727;28;20502;-68
2021/06/13 00:10:31;;;;;;;10.82;8.75;;;16.30;99.90;;;;;;5069105;28;20037;-68
2021/06/13 00:12:59;;;;;;;9.45;8.02;;;16.30;99.90;;;;;;5078551;28;20098;-68
2021/06/13 00:15:27;;;;;;;10.50;8.57;;;16.30;99.90;;;;;;5069357;28;20102;-69
2021/06/13 00:17:55;;;;;;;11.23;8.13;;;16.20;99.90;;;;;;5069841;28;20057;-69
2021/06/13 00:20:26;;;;;;;9.25;8.23;;;16.20;99.90;;;;;;5083666;28;20057;-67
2021/06/13 00:22:53;;;;;;;11.20;8.40;;;16.10;99.90;;;;;;5054773;28;20041;-68
2021/06/13 00:25:23;;;;;;;8.63;7.85;;;16.00;99.90;;;;;;5070504;28;20470;-68
2021/06/13 00:27:50;;;;;;;10.50;9.27;;;16.00;99.90;;;;;;5067504;28;20049;-68
2021/06/13 00:30:18;;;;;;;11.38;7.85;;;15.90;99.90;;;;;;5067406;28;20045;-68
2021/06/13 00:32:45;;;;;;;12.23;8.10;;;15.90;99.90;;;;;;5068237;28;20135;-68
2021/06/13 00:35:16;;;;;;;9.73;8.30;;;15.80;99.90;;;;;;5060503;28;20044;-68
2021/06/13 00:37:44;;;;;;;8.10;7.30;;;15.70;99.90;;;;;;5067972;28;20052;-67
2021/06/13 00:40:17;;;;;;;9.55;7.93;;;15.60;99.90;;;;;;5058767;28;20504;-67
2021/06/13 00:42:45;;;;;;;13.85;8.25;;;15.60;99.90;;;;;;5082205;28;20037;-69
2021/06/13 00:45:13;;;;;;;10.98;8.40;;;15.50;99.90;;;;;;5059743;28;20041;-68
2021/06/13 00:47:41;;;;;;;12.18;7.97;;;15.50;99.90;;;;;;5072099;28;20037;-68
2021/06/13 00:50:34;;;;;;;11.07;7.78;;;15.50;99.90;;;;;;5065303;28;20500;-68
2021/06/13 00:53:04;;;;;;;10.70;8.17;;;15.40;99.90;;;;;;5073276;28;20088;-68
2021/06/13 00:55:36;;;;;;;9.65;7.70;;;15.40;99.90;;;;;;5065802;28;20063;-68
2021/06/13 00:58:05;;;;;;;9.38;7.38;;;15.30;99.90;;;;;;5072253;28;20060;-68
2021/06/13 01:00:34;;;;;;;9.10;8.20;;;15.30;99.90;;;;;;5068192;28;20045;-68
2021/06/13 01:03:03;;;;;;;8.93;7.63;;;15.30;99.90;;;;;;5069552;28;20053;-68
2021/06/13 01:05:31;;;;;;;7.60;6.88;;;15.20;99.90;;;;;;5070745;28;20049;-68
2021/06/13 01:08:06;;;;;;;10.10;7.03;;;15.10;99.90;;;;;;5072883;28;20049;-68
2021/06/13 01:10:49;;;;;;;10.93;7.88;;;15.10;99.90;;;;;;5072387;28;20072;-68
2021/06/13 01:13:21;;;;;;;8.60;7.45;;;15.10;99.90;;;;;;5074044;28;20411;-68
2021/06/13 01:16:20;;;;;;;10.48;7.28;;;15.00;99.90;;;;;;5064856;28;20044;-68
2021/06/13 01:18:53;;;;;;;9.23;8.00;;;15.00;99.90;;;;;;5069767;28;20053;-69
2021/06/13 01:21:32;;;;;;;9.98;7.72;;;14.90;99.90;;;;;;5055594;28;20071;-68
2021/06/13 01:24:00;;;;;;;10.65;7.50;;;14.90;99.90;;;;;;5052902;28;20128;-67
2021/06/13 01:26:52;;;;;;;12.77;8.07;;;14.90;99.90;;;;;;5073947;28;20124;-68
2021/06/13 01:29:37;;;;;;;14.65;7.55;;;14.90;99.90;;;;;;5066468;28;20069;-67
2021/06/13 01:32:21;;;;;;;8.55;7.57;;;14.90;99.90;;;;;;5064430;28;20053;-68
2021/06/13 01:34:57;;;;;;;11.93;8.00;;;14.80;99.90;;;;;;5067877;28;20091;-67
2021/06/13 01:37:34;;;;;;;7.93;6.97;;;14.80;99.90;;;;;;5069444;28;20041;-67
2021/06/13 01:40:08;;;;;;;7.95;7.18;;;14.70;99.90;;;;;;5051298;28;20165;-67
2021/06/13 01:42:44;;;;;;;9.30;7.47;;;14.60;99.90;;;;;;5067740;28;20511;-67
2021/06/13 01:45:16;;;;;;;10.23;7.78;;;14.60;99.90;;;;;;5072204;28;20415;-69
2021/06/13 01:47:46;;;;;;;9.40;7.50;;;14.60;99.90;;;;;;5067665;28;20415;-68
2021/06/13 01:50:15;;;;;;;8.88;7.40;;;14.60;99.90;;;;;;5070758;28;20560;-67
2021/06/13 01:52:47;;;;;;;11.02;7.40;;;14.50;99.90;;;;;;5067318;28;20121;-68
2021/06/13 01:55:18;;;;;;;10.13;7.53;;;14.50;99.90;;;;;;5055529;28;20094;-67
2021/06/13 01:57:48;;;;;;;11.80;7.68;;;14.40;99.90;;;;;;5065888;28;20056;-67
2021/06/13 02:00:26;;;;;;;9.95;7.90;;;14.50;99.90;;;;;;5065455;28;20158;-68
2021/06/13 02:03:02;;;;;;;13.13;7.65;;;14.40;99.90;;;;;;5062059;28;20139;-68
2021/06/13 02:05:57;;;;;;;10.13;7.40;;;14.40;99.90;;;;;;5068920;28;20114;-68
2021/06/13 02:08:25;;;;;;;10.02;7.55;;;14.30;99.90;;;;;;5069566;28;20040;-68
2021/06/13 02:11:05;;;;;;;12.82;6.93;;;14.30;99.90;;;;;;5051448;28;20560;-68
2021/06/13 02:13:33;;;;;;;10.88;7.40;;;14.20;99.90;;;;;;5068793;28;20521;-68
2021/06/13 02:16:08;;;;;;;9.95;7.80;;;14.20;99.90;;;;;;5066441;28;20062;-68
2021/06/13 02:18:36;;;;;;;10.25;7.80;;;14.10;99.90;;;;;;5062490;28;20048;-68
2021/06/13 02:21:07;;;;;;;11.00;7.65;;;14.20;99.90;;;;;;5046855;28;20049;-69
2021/06/13 02:23:37;;;;;;;9.85;7.75;;;14.10;99.90;;;;;;5063036;28;20041;-67
2021/06/13 02:26:05;;;;;;;9.98;8.18;;;14.10;99.90;;;;;;5074765;28;20040;-67
2021/06/13 02:28:38;;;;;;;9.77;7.45;;;14.10;99.90;;;;;;5062471;28;20100;-68
2021/06/13 02:31:09;;;;;;;12.93;8.23;;;14.10;99.90;;;;;;5064740;28;20068;-69
2021/06/13 02:33:40;;;;;;;8.15;7.35;;;14.00;99.90;;;;;;5069790;28;20049;-67
2021/06/13 02:36:09;;;;;;;9.32;7.25;;;14.00;99.90;;;;;;5057813;28;20411;-67
2021/06/13 02:38:50;;;;;;;10.02;7.40;;;13.90;99.90;;;;;;5069187;28;20080;-68
2021/06/13 02:41:18;;;;;;;8.60;7.25;;;13.90;99.90;;;;;;5069671;28;20096;-68
2021/06/13 02:43:47;;;;;;;8.38;7.28;;;13.90;99.90;;;;;;5052906;28;20426;-68
2021/06/13 02:46:15;;;;;;;9.25;7.32;;;13.80;99.90;;;;;;5066061;28;20052;-68
2021/06/13 02:48:43;;;;;;;10.13;7.82;;;13.80;99.90;;;;;;5070769;28;20132;-68
2021/06/13 02:51:14;;;;;;;11.40;7.43;;;13.80;99.90;;;;;;5069890;28;20070;-68
2021/06/13 02:53:45;;;;;;;8.70;7.30;;;13.70;99.90;;;;;;5069590;28;20106;-68
2021/06/13 02:56:55;;;;;;;7.85;7.05;;;13.70;99.90;;;;;;5074470;28;20402;-68
2021/06/13 02:59:36;;;;;;;10.27;7.20;;;13.70;99.90;;;;;;5066689;28;20151;-68
2021/06/13 03:02:08;;;;;;;9.00;6.93;;;13.70;99.90;;;;;;5054542;28;20052;-68
2021/06/13 03:04:36;;;;;;;9.93;7.20;;;13.70;99.90;;;;;;5069820;28;20044;-68
2021/06/13 03:07:05;;;;;;;7.55;6.63;;;13.60;99.90;;;;;;5070783;28;20048;-68
2021/06/13 03:09:35;;;;;;;11.85;7.57;;;13.70;99.90;;;;;;5087831;28;20052;-68
2021/06/13 03:12:09;;;;;;;9.90;7.60;;;13.70;99.90;;;;;;5068661;28;20083;-68
2021/06/13 03:14:40;;;;;;;9.00;7.00;;;13.60;99.90;;;;;;5071476;28;20558;-68
2021/06/13 03:17:10;;;;;;;;;;;13.60;99.90;;;;;;5050605;28;20075;-68
2021/06/13 03:19:41;;;;;;;10.90;6.85;;;13.60;99.90;;;;;;5082293;28;19924;-68
2021/06/13 03:22:10;;;;;;;8.30;6.93;;;13.60;99.90;;;;;;5052773;28;20048;-68
2021/06/13 03:24:42;;;;;;;10.57;7.03;;;13.50;99.90;;;;;;5034939;28;20053;-68
2021/06/13 03:27:10;;;;;;;10.63;7.50;;;13.60;99.90;;;;;;5072192;28;20048;-68
2021/06/13 03:29:43;;;;;;;7.57;6.65;;;13.60;99.90;;;;;;5065327;28;20066;-68
2021/06/13 03:32:13;;;;;;;11.00;6.90;;;13.60;99.90;;;;;;5065198;28;20053;-68
2021/06/13 03:34:44;;;;;;;8.88;7.05;;;13.60;99.90;;;;;;5063546;28;20052;-68
2021/06/13 03:37:13;;;;;;;6.95;6.30;;;13.60;99.90;;;;;;5070143;28;20056;-68
2021/06/13 03:39:43;;;;;;;7.70;6.80;;;13.60;99.90;;;;;;5068764;28;20056;-68
2021/06/13 03:42:11;;;;;;;9.45;6.72;;;13.60;99.90;;;;;;5071483;28;20056;-68
2021/06/13 03:44:40;;;;;;;9.10;7.00;;;13.60;99.90;;;;;;5049885;28;20051;-68
2021/06/13 03:47:09;;;;;;;9.82;7.20;;;13.60;99.90;;;;;;5056804;28;20134;-68
2021/06/13 03:49:37;;;;;;;8.18;6.93;;;13.60;99.90;;;;;;5066945;28;20119;-68
2021/06/13 03:52:05;;;;;;;11.20;7.32;;;13.70;99.90;;;;;;5062084;28;20052;-68
2021/06/13 03:54:33;;;;;;;8.38;6.93;;;13.70;99.90;;;;;;5070058;28;20076;-68
2021/06/13 03:57:06;;;;;;;7.93;7.22;;;13.70;99.90;;;;;;5071066;28;20046;-68
2021/06/13 03:59:35;;;;;;;7.45;6.53;;;13.80;99.90;;;;;;5066116;28;20109;-68
2021/06/13 04:02:04;;;;;;;7.80;6.93;;;13.80;99.90;;;;;;5069113;28;20121;-68
2021/06/13 04:04:42;;;;;;;9.45;6.72;;;13.90;99.90;;;;;;5059928;28;20048;-68
2021/06/13 04:07:12;;;;;;;9.50;8.27;;;13.90;99.90;;;;;;5070018;28;20060;-68
2021/06/13 04:09:40;;;;;;;9.27;7.95;;;14.00;99.90;;;;;;5085135;28;20041;-68
2021/06/13 04:12:14;;;;;;;8.07;6.90;;;14.10;99.90;;;;;;5068679;28;20550;-68
2021/06/13 04:14:45;;;;;;;8.85;7.32;;;14.10;99.90;;;;;;5067282;28;20519;-68
2021/06/13 04:17:18;;;;;;;9.52;7.43;;;14.20;99.90;;;;;;5060468;28;20053;-68
2021/06/13 04:19:47;;;;;;;9.18;7.72;;;14.20;99.90;;;;;;5085676;28;20083;-68
2021/06/13 04:22:19;;;;;;;13.73;7.80;;;14.10;99.90;;;;;;5069179;28;20052;-68
2021/06/13 04:24:48;;;;;;;10.57;8.00;;;14.10;99.90;;;;;;5066505;28;20108;-68
2021/06/13 04:27:19;;;;;;;10.60;7.30;;;14.10;99.90;;;;;;5073549;28;20033;-68
2021/06/13 04:29:47;;;;;;;9.43;7.20;;;14.10;99.90;;;;;;5070841;28;20048;-68
2021/06/13 04:32:15;;;;;;;8.82;7.60;;;14.20;99.90;;;;;;5068519;28;20044;-68
2021/06/13 04:34:43;;;;;;;14.85;7.47;;;14.20;99.90;;;;;;5050587;28;20595;-68
2021/06/13 04:37:14;;;;;;;11.57;7.28;;;14.20;99.90;;;;;;5053514;28;20049;-68
2021/06/13 04:39:41;;;;;;;10.50;7.18;;;14.20;99.90;;;;;;5058943;28;20640;-68
2021/06/13 04:42:09;;;;;;;12.00;7.68;;;14.20;99.90;;;;;;5063030;28;20048;-68
2021/06/13 04:44:38;;;;;;;9.88;7.13;;;14.20;99.90;;;;;;5069400;28;20045;-68
2021/06/13 04:47:06;;;;;;;8.80;7.18;;;14.30;99.90;;;;;;5069272;28;20049;-68
2021/06/13 04:49:49;;;;;;;10.55;7.57;;;14.30;99.90;;;;;;5062366;28;20403;-68
2021/06/13 04:52:18;;;;;;;9.68;6.90;;;14.30;99.90;;;;;;5081365;28;20045;-68
2021/06/13 04:55:07;;;;;;;10.10;7.00;;;14.30;99.90;;;;;;5069697;28;20052;-68
2021/06/13 04:57:55;;;;;;;9.60;7.43;;;14.40;99.90;;;;;;5078071;28;20049;-68
2021/06/13 05:00:22;;;;;;;8.57;7.40;;;14.30;99.90;;;;;;5075191;28;20048;-68
2021/06/13 05:02:50;;;;;;;10.85;7.10;;;14.30;99.90;;;;;;5066523;28;20502;-68
2021/06/13 05:05:18;;;;;;;11.25;6.70;;;14.40;99.90;;;;;;5067799;28;20586;-68
2021/06/13 05:07:46;;;;;;;8.13;6.78;;;14.50;99.90;;;;;;5052650;28;20068;-68
2021/06/13 05:10:13;;;;;;;11.68;7.22;;;14.50;99.90;;;;;;5069634;28;20511;-68
2021/06/13 05:12:51;;;;;;;10.80;6.70;;;14.40;99.90;;;;;;5068970;28;20056;-68
2021/06/13 05:15:20;;;;;;;10.82;6.53;;;14.50;99.90;;;;;;5059060;28;20564;-68
2021/06/13 05:17:51;;;;;;;10.13;7.50;;;14.50;99.90;;;;;;5070341;28;20466;-68
2021/06/13 05:20:19;;;;;;;9.68;7.40;;;14.50;99.90;;;;;;5070947;28;20384;-68
2021/06/13 05:22:49;;;;;;;8.88;6.28;;;14.50;99.90;;;;;;5067349;28;20119;-68
2021/06/13 05:25:19;;;;;;;10.20;6.90;;;14.60;99.90;;;;;;5057425;28;20048;-68
2021/06/13 05:27:46;;;;;;;14.02;8.32;;;14.60;99.90;;;;;;5073481;28;20437;-68
2021/06/13 05:30:14;;;;;;;9.55;7.78;;;14.70;99.90;;;;;;5063899;28;20143;-68
2021/06/13 05:32:42;;;;;;;11.07;6.30;;;14.70;99.90;;;;;;5075193;28;20044;-68
2021/06/13 05:35:10;;;;;;;10.10;6.78;;;14.80;99.90;;;;;;5070187;28;20053;-68
2021/06/13 05:37:38;;;;;;;13.00;7.70;;;14.80;99.90;;;;;;5050944;28;20530;-68
2021/06/13 05:40:08;;;;;;;9.00;7.22;;;14.90;99.90;;;;;;5072638;28;20045;-68
2021/06/13 05:42:36;;;;;;;9.35;6.82;;;15.00;99.90;;;;;;5066768;28;20127;-68
2021/06/13 05:45:08;;;;;;;9.82;6.32;;;15.00;99.90;;;;;;5072436;28;20491;-68
2021/06/13 05:47:36;;;;;;;11.32;6.90;;;14.90;99.90;;;;;;5070224;28;20044;-68
2021/06/13 05:50:06;;;;;;;10.45;6.93;;;14.90;99.90;;;;;;5073036;28;20060;-68
2021/06/13 05:52:34;;;;;;;9.32;6.93;;;14.90;99.90;;;;;;5064185;28;20070;-68
2021/06/13 05:55:02;;;;;;;13.05;7.10;;;14.90;99.90;;;;;;5072289;28;20520;-68
2021/06/13 05:57:31;;;;;;;11.88;7.82;;;14.90;99.90;;;;;;5069395;28;20135;-67
2021/06/13 06:00:22;;;;;;;9.20;7.13;;;15.00;99.90;;;;;;5078148;28;20068;-68
2021/06/13 06:02:49;;;;;;;9.77;6.50;;;15.10;99.90;;;;;;5070687;28;20048;-68
2021/06/13 06:05:19;;;;;;;8.30;6.30;;;15.30;99.90;;;;;;5072223;28;20079;-68
2021/06/13 06:07:48;;;;;;;12.25;7.90;;;15.40;99.90;;;;;;5071574;28;20052;-68
2021/06/13 06:10:16;;;;;;;13.50;7.35;;;15.50;99.90;;;;;;5070661;28;20119;-68
2021/06/13 06:12:44;;;;;;;9.23;6.30;;;15.60;99.90;;;;;;5052299;28;20048;-68
2021/06/13 06:15:14;;;;;;;8.80;6.78;;;15.60;99.90;;;;;;5072484;28;20064;-68
2021/06/13 06:17:43;;;;;;;9.85;7.30;;;15.60;99.90;;;;;;5060820;28;20067;-68
2021/06/13 06:20:13;;;;;;;10.40;7.00;;;15.80;99.90;;;;;;5057828;28;20048;-68
2021/06/13 06:22:41;;;;;;;7.90;6.47;;;15.80;99.90;;;;;;5070734;28;20044;-68
2021/06/13 06:25:10;;;;;;;11.15;7.55;;;15.90;99.90;;;;;;5072384;28;20041;-68
2021/06/13 06:27:38;;;;;;;15.02;9.68;;;16.10;99.90;;;;;;5068897;28;20041;-68
2021/06/13 06:30:09;;;;;;;8.52;7.68;;;16.10;99.90;;;;;;5058442;28;20041;-68
2021/06/13 06:32:37;;;;;;;10.05;7.28;;;16.20;99.90;;;;;;5072492;28;20040;-68
2021/06/13 06:35:06;;;;;;;11.45;7.00;;;16.10;99.90;;;;;;5058472;28;20084;-67
2021/06/13 06:37:36;;;;;;;8.80;7.78;;;16.30;99.90;;;;;;5059258;28;20040;-68
2021/06/13 06:40:06;;;;;;;9.63;7.80;;;16.40;99.90;;;;;;5067777;28;20507;-67
2021/06/13 06:42:34;;;;;;;12.25;7.72;;;16.60;99.90;;;;;;5070865;28;20131;-67
2021/06/13 06:45:01;;;;;;;10.88;7.60;;;16.50;99.90;;;;;;5070443;28;20512;-67
2021/06/13 06:47:29;;;;;;;9.13;7.05;;;16.80;99.90;;;;;;5071456;28;20414;-67
2021/06/13 06:49:56;;;;;;;10.02;7.22;;;16.90;99.90;;;;;;5070327;28;20044;-67
2021/06/13 06:52:24;;;;;;;8.73;7.70;;;17.00;99.90;;;;;;5052504;28;20045;-67
2021/06/13 06:54:52;;;;;;;8.63;7.70;;;17.00;99.90;;;;;;5070035;28;20102;-67
2021/06/13 06:57:20;;;;;;;9.38;7.85;;;17.00;99.90;;;;;;5069320;28;20137;-67
2021/06/13 06:59:47;;;;;;;9.90;7.65;;;17.00;99.90;;;;;;5070882;28;20055;-67
2021/06/13 07:02:15;;;;;;;10.38;7.63;;;17.00;99.90;;;;;;5071655;28;20056;-67
2021/06/13 07:04:42;;;;;;;10.05;8.10;;;17.00;99.90;;;;;;5067897;28;20037;-67
2021/06/13 07:07:10;;;;;;;12.32;7.82;;;17.30;99.90;;;;;;5070400;28;20067;-68
2021/06/13 07:09:37;;;;;;;11.02;8.10;;;17.60;99.90;;;;;;5071351;28;20044;-67
2021/06/13 07:12:05;;;;;;;8.65;7.28;;;17.80;99.90;;;;;;5070268;28;20041;-67
2021/06/13 07:14:33;;;;;;;8.40;7.60;;;18.10;99.90;;;;;;5052559;28;20076;-67
2021/06/13 07:17:01;;;;;;;11.15;8.32;;;18.20;99.90;;;;;;5070252;28;20097;-68
2021/06/13 07:19:28;;;;;;;8.88;7.97;;;18.00;99.90;;;;;;5069990;28;20164;-68
2021/06/13 07:21:56;;;;;;;12.35;8.85;;;17.90;99.90;;;;;;5068559;28;20064;-68
2021/06/13 07:24:23;;;;;;;12.77;7.97;;;17.80;99.90;;;;;;5070021;28;20621;-68
2021/06/13 07:26:50;;;;;;;12.45;7.90;;;17.80;99.90;;;;;;5076922;28;20098;-68
2021/06/13 07:29:18;;;;;;;9.40;7.85;;;17.90;99.90;;;;;;5070964;28;20139;-68
2021/06/13 07:31:45;;;;;;;9.20;8.25;;;18.20;99.90;;;;;;5069946;28;20055;-68
2021/06/13 07:34:13;;;;;;;9.88;7.38;;;18.50;99.90;;;;;;5064735;28;20068;-68
2021/06/13 07:36:40;;;;;;;10.48;8.27;;;18.60;99.90;;;;;;5058164;28;20080;-68
2021/06/13 07:39:08;;;;;;;9.63;7.63;;;18.40;99.90;;;;;;5039188;28;20049;-68
2021/06/13 07:41:35;;;;;;;11.48;8.38;;;18.20;99.90;;;;;;5065215;28;20411;-68
2021/06/13 07:44:03;;;;;;;9.30;7.25;;;18.10;99.90;;;;;;5067436;28;20049;-68
2021/06/13 07:46:34;;;;;;;10.02;7.82;;;17.80;99.90;;;;;;5063539;28;20072;-68
2021/06/13 07:49:03;;;;;;;12.93;7.80;;;17.70;99.90;;;;;;5061394;28;20078;-68
2021/06/13 07:51:30;;;;;;;10.82;8.35;;;17.50;99.90;;;;;;5069258;28;20048;-68
2021/06/13 07:53:58;;;;;;;10.32;7.40;;;17.50;99.90;;;;;;5061142;28;20059;-68
2021/06/13 07:56:25;;;;;;;10.38;7.90;;;17.60;99.90;;;;;;5062910;28;20076;-68
2021/06/13 07:58:53;;;;;;;8.90;7.40;;;17.60;99.90;;;;;;5067706;28;20200;-68
2021/06/13 08:01:20;;;;;;;8.32;7.53;;;17.50;99.90;;;;;;5055470;28;20079;-68
2021/06/13 08:03:48;;;;;;;9.75;7.95;;;17.40;99.90;;;;;;5056409;28;20045;-68
2021/06/13 08:06:15;;;;;;;8.70;7.80;;;17.30;99.90;;;;;;5057397;28;20048;-68
2021/06/13 08:08:42;;;;;;;12.13;7.85;;;17.10;99.90;;;;;;5055412;28;20541;-68
2021/06/13 08:11:09;;;;;;;12.80;8.02;;;17.20;99.90;;;;;;5056379;28;20357;-68
2021/06/13 08:13:37;;;;;;;10.48;8.23;;;17.30;99.90;;;;;;5061622;28;20084;-68
2021/06/13 08:16:06;;;;;;;13.02;8.55;;;17.50;99.90;;;;;;5068268;28;20131;-68
2021/06/13 08:18:34;;;;;;;12.43;8.35;;;17.50;99.90;;;;;;5054794;28;20249;-68
2021/06/13 08:21:01;;;;;;;10.95;7.72;;;17.60;99.90;;;;;;5058870;28;20581;-68
2021/06/13 08:23:31;;;;;;;10.25;8.02;;;17.70;99.90;;;;;;5053699;28;20128;-68
2021/06/13 08:25:59;;;;;;;14.13;8.10;;;17.80;99.90;;;;;;5074709;28;20045;-67
2021/06/13 08:28:27;;;;;;;12.60;8.43;;;17.70;99.90;;;;;;5053596;28;20044;-68
2021/06/13 08:30:55;;;;;;;12.07;8.40;;;17.40;99.90;;;;;;5063358;28;20060;-68
2021/06/13 08:33:23;;;;;;;11.95;8.20;;;17.30;99.90;;;;;;5056451;28;20094;-68
2021/06/13 08:35:52;;;;;;;9.32;8.30;;;17.30;99.90;;;;;;5058180;28;20059;-68
2021/06/13 08:38:21;;;;;;;9.35;8.00;;;17.20;99.90;;;;;;5063966;28;20513;-68
2021/06/13 08:40:48;;;;;;;10.38;9.13;;;17.10;99.90;;;;;;5070023;28;20106;-68
2021/06/13 08:43:16;;;;;;;10.88;8.85;;;17.20;99.90;;;;;;5069879;28;20139;-68
2021/06/13 08:45:44;;;;;;;11.27;8.13;;;17.10;99.90;;;;;;5068067;28;20068;-68
2021/06/13 08:48:13;;;;;;;8.75;7.72;;;17.20;99.90;;;;;;5065513;28;20055;-68
2021/06/13 08:50:41;;;;;;;11.00;7.55;;;17.40;99.90;;;;;;5074569;28;20499;-68
2021/06/13 08:53:08;;;;;;;8.43;7.28;;;17.50;99.90;;;;;;5068067;28;20045;-68
2021/06/13 08:55:36;;;;;;;8.98;7.70;;;17.70;99.90;;;;;;5068528;28;20510;-68
2021/06/13 08:58:04;;;;;;;8.73;7.72;;;17.70;99.90;;;;;;5069245;28;20603;-68
2021/06/13 09:00:33;;;;;;;9.00;7.95;;;17.60;99.90;;;;;;5057241;28;20051;-68
2021/06/13 09:03:04;;;;;;;8.35;7.45;;;17.70;99.90;;;;;;5056016;28;20128;-68
2021/06/13 09:05:31;;;;;;;16.60;7.45;;;17.70;99.90;;;;;;5067812;28;20124;-69
2021/06/13 09:08:10;;;;;;;11.02;8.43;;;17.70;99.90;;;;;;5066665;28;20546;-68
2021/06/13 09:10:43;;;;;;;8.95;7.40;;;17.50;99.90;;;;;;5066290;28;20280;-68
2021/06/13 09:13:15;;;;;;;11.75;7.80;;;17.50;99.90;;;;;;5073166;28;20058;-68
2021/06/13 09:15:48;;;;;;;16.08;8.63;;;17.50;99.90;;;;;;5068062;28;20052;-68
2021/06/13 09:18:37;;;;;;;11.73;8.20;;;17.60;99.90;;;;;;5071557;28;20044;-68
2021/06/13 09:21:09;;;;;;;10.15;7.90;;;17.70;99.90;;;;;;5073534;28;20166;-68
2021/06/13 09:23:38;;;;;;;12.07;7.80;;;17.70;99.90;;;;;;5060371;28;20131;-68
2021/06/13 09:26:17;;;;;;;9.70;8.15;;;17.90;99.90;;;;;;5074547;28;20036;-68
2021/06/13 09:28:47;;;;;;;11.15;8.48;;;18.10;99.90;;;;;;5075024;28;20044;-68
2021/06/13 09:31:20;;;;;;;9.85;8.05;;;18.20;99.90;;;;;;5072589;28;20114;-68
2021/06/13 09:33:50;;;;;;;8.98;8.18;;;18.20;99.90;;;;;;5078393;28;20394;-68
2021/06/13 09:36:25;;;;;;;10.95;7.65;;;18.20;99.90;;;;;;5057700;28;20080;-68
2021/06/13 09:38:55;;;;;;;9.75;7.18;;;18.30;99.90;;;;;;5057224;28;20145;-68
2021/06/13 09:41:24;;;;;;;8.68;7.78;;;18.30;99.90;;;;;;5039950;28;20126;-68
2021/06/13 09:43:59;;;;;;;9.80;8.20;;;18.30;99.90;;;;;;5043749;28;20048;-68
2021/06/13 09:46:29;;;;;;;9.85;8.70;;;18.50;99.90;;;;;;5056229;28;20075;-68
2021/06/13 09:49:02;;;;;;;9.75;7.53;;;18.60;99.90;;;;;;5059850;28;20493;-68
2021/06/13 09:51:35;;;;;;;13.85;7.78;;;18.60;99.90;;;;;;5065695;28;20136;-69
2021/06/13 09:54:05;;;;;;;9.82;8.00;;;18.50;99.90;;;;;;5062791;28;20053;-68
2021/06/13 09:56:37;;;;;;;9.40;7.03;;;18.50;99.90;;;;;;5055464;28;20114;-68
2021/06/13 09:59:12;;;;;;;10.32;7.82;;;18.60;99.90;;;;;;5059687;28;20399;-68
2021/06/13 10:01:49;;;;;;;11.45;7.70;;;18.60;99.90;;;;;;5071824;28;20451;-68
2021/06/13 10:04:23;;;;;;;9.93;7.60;;;18.70;99.90;;;;;;5061767;28;20418;-68
2021/06/13 10:06:53;;;;;;;9.77;7.28;;;18.80;99.90;;;;;;5057498;28;20055;-68
2021/06/13 10:09:22;;;;;;;9.77;8.73;;;18.90;99.90;;;;;;5058932;28;20049;-69
2021/06/13 10:12:02;;;;;;;9.05;7.05;;;19.00;99.90;;;;;;5057267;28;20393;-69
2021/06/13 10:14:29;;;;;;;10.65;7.30;;;19.20;99.90;;;;;;5063511;28;20126;-68
2021/06/13 10:16:57;;;;;;;7.70;6.88;;;19.40;99.90;;;;;;5058532;28;20495;-68
2021/06/13 10:19:48;;;;;;;8.32;7.43;;;19.40;99.90;;;;;;5061787;28;20052;-68
2021/06/13 10:22:18;;;;;;;7.75;6.85;;;19.30;99.90;;;;;;5045526;28;20056;-68
2021/06/13 10:24:49;;;;;;;10.30;7.78;;;19.30;99.90;;;;;;5059039;28;20143;-68
2021/06/13 10:27:20;;;;;;;8.45;7.55;;;19.50;99.90;;;;;;5073870;28;20056;-68
2021/06/13 10:29:50;;;;;;;8.43;7.32;;;19.70;99.90;;;;;;5070366;28;20052;-68
2021/06/13 10:32:22;;;;;;;8.52;7.35;;;19.70;99.90;;;;;;5072082;28;20472;-68
2021/06/13 10:34:50;;;;;;;9.38;7.35;;;19.80;99.90;;;;;;5062571;28;20127;-68
2021/06/13 10:37:18;;;;;;;9.02;7.32;;;19.70;99.90;;;;;;5041131;28;20561;-68
2021/06/13 10:39:49;;;;;;;9.55;7.75;;;19.70;99.90;;;;;;5055956;28;20118;-68
2021/06/13 10:42:18;;;;;;;9.38;7.50;;;19.60;99.90;;;;;;5055382;28;20044;-68
2021/06/13 10:44:56;;;;;;;8.98;7.35;;;19.90;99.90;;;;;;5056805;28;20128;-69
2021/06/13 10:47:26;;;;;;;9.80;7.45;;;20.00;99.90;;;;;;5054192;28;20427;-68
2021/06/13 10:49:56;;;;;;;8.77;7.22;;;20.30;99.90;;;;;;5038883;28;20513;-68
2021/06/13 10:52:28;;;;;;;7.68;6.88;;;20.40;99.90;;;;;;5068857;28;20071;-68
2021/06/13 10:54:57;;;;;;;9.98;7.43;;;20.40;99.90;;;;;;5068627;28;20045;-68
2021/06/13 10:57:25;;;;;;;9.32;7.38;;;20.50;99.90;;;;;;5068895;28;20135;-68
2021/06/13 10:59:56;;;;;;;13.00;7.65;;;20.70;99.90;;;;;;5056134;28;20053;-68
2021/06/13 11:02:26;;;;;;;10.10;7.93;;;20.80;99.90;;;;;;5058817;28;20048;-69
2021/06/13 11:05:05;;;;;;;8.48;7.50;;;20.80;99.90;;;;;;5038401;28;20041;-68
2021/06/13 11:07:36;;;;;;;11.15;7.53;;;20.80;99.90;;;;;;5059235;28;20090;-68
2021/06/13 11:10:07;;;;;;;8.32;7.35;;;21.00;99.90;;;;;;5055956;28;20048;-68
2021/06/13 11:12:37;;;;;;;9.32;7.55;;;21.10;99.90;;;;;;5069197;28;20036;-68
2021/06/13 11:15:07;;;;;;;8.73;7.80;;;21.10;99.90;;;;;;5054755;28;20053;-68
2021/06/13 11:17:54;;;;;;;10.73;8.07;;;21.20;99.90;;;;;;5041030;28;20060;-69
2021/06/13 11:20:29;;;;;;;9.32;8.27;;;21.40;99.90;;;;;;5059555;28;20080;-68
2021/06/13 11:22:58;;;;;;;7.82;7.13;;;21.70;99.90;;;;;;5069863;28;20340;-68
2021/06/13 11:25:29;;;;;;;11.07;8.02;;;22.00;99.90;;;;;;5061881;28;20086;-69
2021/06/13 11:28:46;;;;;;;9.77;8.27;;;22.30;99.90;;;;;;5050118;28;20045;-69
2021/06/13 11:31:13;;;;;;;8.77;7.90;;;22.40;99.90;;;;;;5048900;28;20053;-68
2021/06/13 11:33:48;;;;;;;8.27;7.47;;;22.30;99.90;;;;;;5048398;28;20086;-68
2021/06/13 11:36:21;;;;;;;9.65;7.93;;;22.20;99.90;;;;;;5048948;28;20072;-69
2021/06/13 11:38:54;;;;;;;9.32;7.85;;;22.40;99.90;;;;;;5027511;28;20133;-69
2021/06/13 11:41:30;;;;;;;9.05;8.10;;;22.30;99.90;;;;;;5044509;28;20077;-68
2021/06/13 11:44:04;;;;;;;9.95;7.30;;;22.40;99.90;;;;;;5014532;28;20068;-68
2021/06/13 11:46:38;;;;;;;9.30;7.80;;;22.70;99.90;;;;;;5043347;28;20148;-68
2021/06/13 11:49:11;;;;;;;8.70;7.93;;;22.80;99.90;;;;;;5029752;28;20065;-68
2021/06/13 11:51:52;;;;;;;8.60;7.95;;;23.00;99.90;;;;;;5031222;28;20077;-68
2021/06/13 11:54:39;;;;;;;9.35;8.05;;;23.20;99.90;;;;;;5030043;28;20045;-69
2021/06/13 11:57:12;;;;;;;9.40;8.10;;;23.40;99.90;;;;;;5024331;28;20095;-69
2021/06/13 11:59:44;;;;;;;8.80;7.93;;;23.70;99.90;;;;;;5047692;28;20090;-69
2021/06/13 12:02:15;;;;;;;8.88;8.05;;;23.90;99.90;;;;;;5024518;28;20567;-69
2021/06/13 12:04:45;;;;;;;11.57;7.95;;;24.40;99.90;;;;;;5031284;28;20132;-69
2021/06/13 12:07:16;;;;;;;10.32;8.23;;;24.80;99.90;;;;;;5048447;28;20061;-68
2021/06/13 12:09:45;;;;;;;10.00;8.02;;;24.50;99.40;;;;;;5056562;28;20084;-69
2021/06/13 12:12:14;;;;;;;9.32;7.72;;;24.10;98.70;;;;;;5056147;28;20051;-69
2021/06/13 12:14:44;;;;;;;9.48;7.57;;;24.40;99.90;;;;;;5056283;28;20053;-67
2021/06/13 12:17:17;;;;;;;8.50;7.80;;;24.60;99.90;;;;;;5055769;28;20163;-68
2021/06/13 12:19:47;;;;;;;9.65;7.65;;;24.80;98.90;;;;;;5070193;28;20048;-68
2021/06/13 12:22:19;;;;;;;8.18;7.38;;;25.10;98.60;;;;;;5043762;28;20598;-67
2021/06/13 12:27:24;;;;;;;8.60;7.80;;;25.20;95.80;;;;;;5067743;28;20143;-67
2021/06/13 12:29:54;;;;;;;11.00;7.85;;;25.00;95.80;;;;;;5064629;28;20383;-67
2021/06/13 12:32:21;;;;;;;8.60;7.70;;;25.30;96.90;;;;;;5065096;28;20044;-67
2021/06/13 12:34:53;;;;;;;9.30;7.35;;;25.60;95.90;;;;;;5055093;28;20068;-68
2021/06/13 12:37:24;;;;;;;7.70;6.95;;;25.90;95.10;;;;;;5069823;28;20098;-68
2021/06/13 12:40:19;;;;;;;8.43;7.70;;;26.20;93.40;;;;;;5060446;28;20049;-68
2021/06/13 12:42:46;;;;;;;7.50;6.78;;;26.00;93.50;;;;;;5077357;28;20449;-68
2021/06/13 12:45:16;;;;;;;7.82;7.13;;;25.90;93.40;;;;;;5081214;28;20065;-68
2021/06/13 12:47:47;;;;;;;8.75;7.95;;;25.70;93.80;;;;;;5068804;28;20132;-67
2021/06/13 12:50:22;;;;;;;8.35;7.65;;;26.10;94.00;;;;;;5070381;28;20094;-68
2021/06/13 12:52:51;;;;;;;9.05;7.13;;;26.20;94.40;;;;;;5073446;28;20559;-68
2021/06/13 12:55:20;;;;;;;11.20;6.68;;;26.90;93.10;;;;;;5063433;28;20135;-68
2021/06/13 12:57:49;;;;;;;9.10;8.00;;;27.20;92.60;;;;;;5068791;28;20056;-68
2021/06/13 13:00:17;;;;;;;8.45;7.65;;;27.60;90.50;;;;;;5068676;28;20083;-67
2021/06/13 13:02:45;;;;;;;8.88;6.85;;;27.50;89.70;;;;;;5063694;28;20049;-67
2021/06/13 13:05:14;;;;;;;8.10;7.15;;;27.00;90.20;;;;;;5075711;28;20102;-67